Time;durP1;ratioP1;P1;durP2;ratioP2;P2;SDS_P1;SDS_P2;PMS_P1;PMS_P2;Temp;Humidity;BMP_temperature;BMP_pressure;BME280_temperature;BME280_humidity;BME280_pressure;Samples;Min_cycle;Max_cycle;Signal;HPM_P1;HPM_P2
2023/09/19 00:00:57;;;;;;;4.78;1.60;;;;;;;;;;6199820;28;20045;-80
2023/09/19 00:04:00;;;;;;;3.15;1.88;;;;;;;;;;6192776;28;20045;-79
2023/09/19 00:07:02;;;;;;;;;;;;;;;;;;6197091;28;20147;-80
2023/09/19 00:10:05;;;;;;;1.85;1.58;;;;;;;;;;6192312;28;19922;-80
2023/09/19 00:13:07;;;;;;;4.03;1.95;;;;;;;;;;6198924;28;20042;-79
2023/09/19 00:16:10;;;;;;;2.17;1.60;;;;;;;;;;6197619;28;20693;-79
2023/09/19 00:19:13;;;;;;;2.10;1.90;;;;;;;;;;6212023;28;20582;-80
2023/09/19 00:22:16;;;;;;;4.27;1.57;;;;;;;;;;6198300;28;20528;-80
2023/09/19 00:25:18;;;;;;;3.45;2.00;;;;;;;;;;6208369;28;20944;-79
2023/09/19 00:28:21;;;;;;;3.83;1.83;;;;;;;;;;6198434;28;20038;-79
2023/09/19 00:31:23;;;;;;;4.13;2.10;;;;;;;;;;6212425;28;20046;-80
2023/09/19 00:34:25;;;;;;;3.57;1.47;;;;;;;;;;6200454;28;20046;-80
2023/09/19 00:37:26;;;;;;;3.08;1.70;;;;;;;;;;6205773;28;20049;-80
2023/09/19 00:40:29;;;;;;;3.17;1.45;;;;;;;;;;6204807;28;20507;-80
2023/09/19 00:43:34;;;;;;;2.75;1.80;;;;;;;;;;6195927;28;20046;-80
2023/09/19 00:46:36;;;;;;;3.70;1.77;;;;;;;;;;6203083;28;20099;-80
2023/09/19 00:49:38;;;;;;;2.95;1.48;;;;;;;;;;6197436;28;20054;-80
2023/09/19 00:52:42;;;;;;;1.60;1.23;;;;;;;;;;6201191;28;20594;-80
2023/09/19 00:55:45;;;;;;;3.08;1.02;;;;;;;;;;6195923;28;21588;-81
2023/09/19 00:58:47;;;;;;;1.15;1.05;;;;;;;;;;6213162;28;20042;-81
2023/09/19 01:01:53;;;;;;;1.67;1.20;;;;;;;;;;6209973;28;20046;-80
2023/09/19 01:04:56;;;;;;;2.50;1.10;;;;;;;;;;6193971;28;20046;-81
2023/09/19 01:07:58;;;;;;;;;;;;;;;;;;6196707;28;20061;-80
2023/09/19 01:11:11;;;;;;;2.10;1.00;;;;;;;;;;6199382;28;19925;-81
2023/09/19 01:14:23;;;;;;;2.35;1.00;;;;;;;;;;6201234;28;20050;-80
2023/09/19 01:17:34;;;;;;;2.17;1.08;;;;;;;;;;6205979;28;20046;-81
2023/09/19 01:21:09;;;;;;;1.65;1.10;;;;;;;;;;6195847;28;20536;-81
2023/09/19 01:24:14;;;;;;;4.30;1.40;;;;;;;;;;6197456;28;20529;-81
2023/09/19 01:27:15;;;;;;;1.30;1.00;;;;;;;;;;6214754;28;20081;-80
2023/09/19 01:30:22;;;;;;;4.88;1.20;;;;;;;;;;6200932;28;20049;-81
2023/09/19 01:33:24;;;;;;;1.67;1.23;;;;;;;;;;6200101;28;20046;-81
2023/09/19 01:36:27;;;;;;;1.42;1.10;;;;;;;;;;6196168;28;20046;-81
2023/09/19 01:39:29;;;;;;;3.72;1.20;;;;;;;;;;6209155;28;20050;-81
2023/09/19 01:42:51;;;;;;;4.10;1.75;;;;;;;;;;6201273;28;20050;-81
2023/09/19 01:46:13;;;;;;;2.72;0.93;;;;;;;;;;6217356;28;20053;-79
2023/09/19 01:49:46;;;;;;;1.75;1.05;;;;;;;;;;6201155;28;20428;-81
2023/09/19 01:53:04;;;;;;;4.63;1.30;;;;;;;;;;6194645;28;20780;-81
2023/09/19 01:56:12;;;;;;;3.67;0.90;;;;;;;;;;6213278;28;20152;-82
2023/09/19 01:59:21;;;;;;;3.22;1.13;;;;;;;;;;6202186;28;20049;-81
2023/09/19 02:02:24;;;;;;;3.30;1.10;;;;;;;;;;6213682;28;20059;-81
2023/09/19 02:05:30;;;;;;;7.00;1.77;;;;;;;;;;6194429;28;20053;-80
2023/09/19 02:08:33;;;;;;;2.42;1.10;;;;;;;;;;6196624;28;20500;-81
2023/09/19 02:11:36;;;;;;;2.85;1.33;;;;;;;;;;6194968;28;20082;-81
2023/09/19 02:14:38;;;;;;;4.32;1.00;;;;;;;;;;6204104;28;20041;-81
2023/09/19 02:17:39;;;;;;;2.72;1.00;;;;;;;;;;6173991;28;20507;-81
2023/09/19 02:20:41;;;;;;;3.53;1.10;;;;;;;;;;6180478;28;20050;-81
2023/09/19 02:23:44;;;;;;;2.40;1.02;;;;;;;;;;6189217;28;20401;-81
2023/09/19 02:26:47;;;;;;;2.65;1.08;;;;;;;;;;6195509;28;20042;-81
2023/09/19 02:29:49;;;;;;;2.58;1.20;;;;;;;;;;6188387;28;20049;-81
2023/09/19 02:32:51;;;;;;;2.63;1.20;;;;;;;;;;6183784;28;21303;-81
2023/09/19 02:36:00;;;;;;;2.13;1.00;;;;;;;;;;6197855;28;20048;-81
2023/09/19 02:39:04;;;;;;;1.92;1.20;;;;;;;;;;6208954;28;20133;-81
2023/09/19 02:42:06;;;;;;;2.60;1.30;;;;;;;;;;6215800;28;20706;-80
2023/09/19 02:45:09;;;;;;;2.80;1.37;;;;;;;;;;6200595;28;20046;-81
2023/09/19 02:48:11;;;;;;;4.32;1.67;;;;;;;;;;6209727;28;20053;-80
2023/09/19 02:51:13;;;;;;;3.50;1.52;;;;;;;;;;6185420;28;20427;-81
2023/09/19 02:54:19;;;;;;;3.03;1.17;;;;;;;;;;6202305;28;20104;-81
2023/09/19 02:57:21;;;;;;;2.65;1.20;;;;;;;;;;6209353;28;20046;-80
2023/09/19 03:00:23;;;;;;;3.07;1.50;;;;;;;;;;6191085;28;20041;-81
2023/09/19 03:03:28;;;;;;;6.22;1.50;;;;;;;;;;6208406;28;20049;-80
2023/09/19 03:06:30;;;;;;;4.60;1.30;;;;;;;;;;6202993;28;20037;-80
2023/09/19 03:09:33;;;;;;;2.55;1.33;;;;;;;;;;6216701;28;20061;-81
2023/09/19 03:12:35;;;;;;;2.22;1.40;;;;;;;;;;6206338;28;20527;-80
2023/09/19 03:15:42;;;;;;;2.63;1.40;;;;;;;;;;6184918;28;20058;-81
2023/09/19 03:18:44;;;;;;;2.80;1.55;;;;;;;;;;6199911;28;20169;-77
2023/09/19 03:21:49;;;;;;;2.30;1.13;;;;;;;;;;6195894;28;20092;-76
2023/09/19 03:24:50;;;;;;;6.07;1.40;;;;;;;;;;6203112;28;20173;-78
2023/09/19 03:27:52;;;;;;;5.22;1.30;;;;;;;;;;6197812;28;20534;-77
2023/09/19 03:31:06;;;;;;;8.13;1.00;;;;;;;;;;6203928;28;20133;-77
2023/09/19 03:34:10;;;;;;;4.95;1.30;;;;;;;;;;6198326;28;20505;-77
2023/09/19 03:37:12;;;;;;;6.70;1.38;;;;;;;;;;6211695;28;20053;-78
2023/09/19 03:40:15;;;;;;;7.20;1.77;;;;;;;;;;6212486;28;20419;-76
2023/09/19 03:43:17;;;;;;;5.00;1.20;;;;;;;;;;6177803;28;20080;-77
2023/09/19 03:46:19;;;;;;;6.35;1.67;;;;;;;;;;6176802;28;20497;-76
2023/09/19 03:49:23;;;;;;;5.40;1.27;;;;;;;;;;6194141;28;20507;-77
2023/09/19 03:52:24;;;;;;;3.08;1.25;;;;;;;;;;6195107;28;20041;-75
2023/09/19 03:55:26;;;;;;;4.30;1.10;;;;;;;;;;6202433;28;20688;-78
2023/09/19 03:58:28;;;;;;;5.53;1.40;;;;;;;;;;6202601;28;20054;-77
2023/09/19 04:01:32;;;;;;;4.07;0.90;;;;;;;;;;6206026;28;20119;-77
2023/09/19 04:04:34;;;;;;;4.43;1.23;;;;;;;;;;6195436;28;20121;-78
2023/09/19 04:07:36;;;;;;;6.03;1.42;;;;;;;;;;6209621;28;20523;-76
2023/09/19 04:10:38;;;;;;;4.63;0.95;;;;;;;;;;6201056;28;20047;-78
2023/09/19 04:13:40;;;;;;;5.63;1.20;;;;;;;;;;6205767;28;20048;-77
2023/09/19 04:16:42;;;;;;;4.53;1.47;;;;;;;;;;6201359;28;20053;-79
2023/09/19 04:19:45;;;;;;;4.22;1.25;;;;;;;;;;6179792;28;20049;-75
2023/09/19 04:22:47;;;;;;;4.15;1.17;;;;;;;;;;6197098;28;20038;-78
2023/09/19 04:25:50;;;;;;;5.13;1.73;;;;;;;;;;6179236;28;20061;-78
2023/09/19 04:28:52;;;;;;;6.50;1.30;;;;;;;;;;6200724;28;20431;-76
2023/09/19 04:31:54;;;;;;;4.72;1.10;;;;;;;;;;6194729;28;20454;-78
2023/09/19 04:34:59;;;;;;;4.57;1.20;;;;;;;;;;6193564;28;20504;-76
2023/09/19 04:38:03;;;;;;;4.72;1.15;;;;;;;;;;6197506;28;20050;-77
2023/09/19 04:41:05;;;;;;;3.30;1.05;;;;;;;;;;6194645;28;20046;-77
2023/09/19 04:44:07;;;;;;;7.22;1.40;;;;;;;;;;6204908;28;20046;-78
2023/09/19 04:47:12;;;;;;;5.95;1.70;;;;;;;;;;6198632;28;20366;-78
2023/09/19 04:50:14;;;;;;;6.30;1.63;;;;;;;;;;6190624;28;20042;-77
2023/09/19 04:53:17;;;;;;;4.50;1.27;;;;;;;;;;6181485;28;20038;-77
2023/09/19 04:56:20;;;;;;;5.28;1.10;;;;;;;;;;6206509;28;20041;-76
2023/09/19 04:59:22;;;;;;;7.57;1.73;;;;;;;;;;6169548;28;20049;-77
2023/09/19 05:02:24;;;;;;;5.70;1.90;;;;;;;;;;6180881;28;20050;-77
2023/09/19 05:05:26;;;;;;;7.18;1.38;;;;;;;;;;6163550;28;20057;-77
2023/09/19 05:08:28;;;;;;;7.03;1.77;;;;;;;;;;6168576;28;20055;-77
2023/09/19 05:11:30;;;;;;;7.57;1.27;;;;;;;;;;6195128;28;20052;-77
2023/09/19 05:14:32;;;;;;;5.15;1.35;;;;;;;;;;6194253;28;20038;-77
2023/09/19 05:17:34;;;;;;;7.30;1.90;;;;;;;;;;6191215;28;20046;-76
2023/09/19 05:20:39;;;;;;;5.85;1.73;;;;;;;;;;6189064;28;20151;-76
2023/09/19 05:23:40;;;;;;;5.13;2.30;;;;;;;;;;6192633;28;20095;-77
2023/09/19 05:26:44;;;;;;;6.03;1.30;;;;;;;;;;6192773;28;20049;-77
2023/09/19 05:29:45;;;;;;;5.47;1.20;;;;;;;;;;6201284;28;20061;-77
2023/09/19 05:32:47;;;;;;;7.18;1.55;;;;;;;;;;6196244;28;20446;-77
2023/09/19 05:35:49;;;;;;;5.30;1.55;;;;;;;;;;6198101;28;20173;-77
2023/09/19 05:38:53;;;;;;;5.10;1.50;;;;;;;;;;6190151;28;20050;-77
2023/09/19 05:41:56;;;;;;;3.95;1.30;;;;;;;;;;6197748;28;20412;-75
2023/09/19 05:44:58;;;;;;;5.15;1.38;;;;;;;;;;6168026;28;20134;-77
2023/09/19 05:48:13;;;;;;;6.03;2.10;;;;;;;;;;6191266;28;20046;-77
2023/09/19 05:51:14;;;;;;;5.57;1.30;;;;;;;;;;6177969;28;20054;-77
2023/09/19 05:54:18;;;;;;;3.60;1.40;;;;;;;;;;6197871;28;20671;-77
2023/09/19 05:57:19;;;;;;;5.03;1.20;;;;;;;;;;6194391;28;20038;-77
2023/09/19 06:00:22;;;;;;;4.13;1.30;;;;;;;;;;6194232;28;20129;-75
2023/09/19 06:03:24;;;;;;;6.72;1.27;;;;;;;;;;6193680;28;20057;-75
2023/09/19 06:06:26;;;;;;;4.70;1.13;;;;;;;;;;6174585;28;20527;-76
2023/09/19 06:09:28;;;;;;;5.60;1.40;;;;;;;;;;6189837;28;20524;-78
2023/09/19 06:12:30;;;;;;;4.25;1.52;;;;;;;;;;6203004;28;20054;-77
2023/09/19 06:15:33;;;;;;;4.60;1.30;;;;;;;;;;6186252;28;20068;-78
2023/09/19 06:18:36;;;;;;;7.10;1.27;;;;;;;;;;6190507;28;20441;-77
2023/09/19 06:21:38;;;;;;;5.75;1.10;;;;;;;;;;6185224;28;20052;-78
2023/09/19 06:24:40;;;;;;;4.55;1.10;;;;;;;;;;6207226;28;20037;-78
2023/09/19 06:27:42;;;;;;;3.03;1.10;;;;;;;;;;6194384;28;20515;-77
2023/09/19 06:30:44;;;;;;;4.22;1.35;;;;;;;;;;6179425;28;20046;-78
2023/09/19 06:33:46;;;;;;;4.20;1.40;;;;;;;;;;6197385;28;20129;-77
2023/09/19 06:36:47;;;;;;;5.88;1.52;;;;;;;;;;6199473;28;20057;-77
2023/09/19 06:39:49;;;;;;;3.97;1.67;;;;;;;;;;6204121;28;20046;-76
2023/09/19 06:42:55;;;;;;;7.30;2.35;;;;;;;;;;6199333;28;20045;-76
2023/09/19 06:45:57;;;;;;;5.55;1.45;;;;;;;;;;6206247;28;20096;-77
2023/09/19 06:48:59;;;;;;;3.75;1.60;;;;;;;;;;6193766;28;20050;-78
2023/09/19 06:52:03;;;;;;;3.13;1.25;;;;;;;;;;6210786;28;20475;-77
2023/09/19 06:55:06;;;;;;;4.65;1.73;;;;;;;;;;6197442;28;20479;-77
2023/09/19 06:58:08;;;;;;;;;;;;;;;;;;6204740;28;20639;-77
2023/09/19 07:01:10;;;;;;;8.38;1.42;;;;;;;;;;6195092;28;19921;-78
2023/09/19 07:04:12;;;;;;;3.20;1.20;;;;;;;;;;6194028;28;20045;-77
2023/09/19 07:07:15;;;;;;;3.85;1.65;;;;;;;;;;6185197;28;20049;-77
2023/09/19 07:10:18;;;;;;;4.53;1.50;;;;;;;;;;6200211;28;20488;-76
2023/09/19 07:13:19;;;;;;;;;;;;;;;;;;6198959;28;20044;-77
2023/09/19 07:16:29;;;;;;;6.75;1.70;;;;;;;;;;6201280;28;19929;-78
2023/09/19 07:19:31;;;;;;;3.40;1.65;;;;;;;;;;6210043;28;20057;-77
2023/09/19 07:22:33;;;;;;;5.53;1.80;;;;;;;;;;6194242;28;20077;-77
2023/09/19 07:25:35;;;;;;;3.73;1.60;;;;;;;;;;6190604;28;20057;-76
2023/09/19 07:28:37;;;;;;;4.30;1.60;;;;;;;;;;6170299;28;20038;-77
2023/09/19 07:31:39;;;;;;;3.95;1.35;;;;;;;;;;6172446;28;20047;-75
2023/09/19 07:34:41;;;;;;;5.20;1.50;;;;;;;;;;6170296;28;20047;-77
2023/09/19 07:37:42;;;;;;;8.18;1.90;;;;;;;;;;6169182;28;20053;-78
2023/09/19 07:40:44;;;;;;;4.70;1.70;;;;;;;;;;6187298;28;20125;-78
2023/09/19 07:43:46;;;;;;;2.75;1.27;;;;;;;;;;6200226;28;20042;-75
2023/09/19 07:46:50;;;;;;;4.68;1.50;;;;;;;;;;6201984;28;20053;-78
2023/09/19 07:49:53;;;;;;;6.82;1.70;;;;;;;;;;6195267;28;20528;-76
2023/09/19 07:52:56;;;;;;;5.13;1.40;;;;;;;;;;6198904;28;20050;-78
2023/09/19 07:56:08;;;;;;;;;;;;;;;;;;6206460;28;20046;-78
2023/09/19 07:59:11;;;;;;;3.67;1.42;;;;;;;;;;6198945;28;20438;-77
2023/09/19 08:02:16;;;;;;;5.38;1.52;;;;;;;;;;6199885;28;20559;-78
2023/09/19 08:05:18;;;;;;;5.70;1.40;;;;;;;;;;6202033;28;20042;-76
2023/09/19 08:08:21;;;;;;;5.07;1.50;;;;;;;;;;6190263;28;20042;-77
2023/09/19 08:11:24;;;;;;;5.82;1.33;;;;;;;;;;6194140;28;20045;-78
2023/09/19 08:14:26;;;;;;;4.97;1.40;;;;;;;;;;6215808;28;20045;-79
2023/09/19 08:17:27;;;;;;;5.15;1.13;;;;;;;;;;6197855;28;20053;-78
2023/09/19 08:20:29;;;;;;;5.55;1.10;;;;;;;;;;6212597;28;20046;-79
2023/09/19 08:23:32;;;;;;;4.68;1.38;;;;;;;;;;6205690;28;20283;-79
2023/09/19 08:26:37;;;;;;;5.25;1.30;;;;;;;;;;6180255;28;20381;-79
2023/09/19 08:29:39;;;;;;;6.10;1.58;;;;;;;;;;6175292;28;20046;-79
2023/09/19 08:32:42;;;;;;;5.00;1.40;;;;;;;;;;6172721;28;20046;-79
2023/09/19 08:35:45;;;;;;;3.50;1.30;;;;;;;;;;6178994;28;20046;-78
2023/09/19 08:38:47;;;;;;;5.50;1.30;;;;;;;;;;6188802;28;20145;-78
2023/09/19 08:41:49;;;;;;;5.40;1.03;;;;;;;;;;6208353;28;20060;-78
2023/09/19 08:44:51;;;;;;;6.50;1.50;;;;;;;;;;6206058;28;20046;-78
2023/09/19 08:48:23;;;;;;;6.53;1.33;;;;;;;;;;6204888;28;20054;-80
2023/09/19 08:51:30;;;;;;;4.25;1.40;;;;;;;;;;6196247;28;20046;-80
2023/09/19 08:54:40;;;;;;;6.07;1.45;;;;;;;;;;6200158;28;20050;-80
2023/09/19 08:57:44;;;;;;;3.78;1.38;;;;;;;;;;6204373;28;20045;-80
2023/09/19 09:00:49;;;;;;;6.00;1.13;;;;;;;;;;6201341;28;20045;-79
2023/09/19 09:03:53;;;;;;;8.05;1.60;;;;;;;;;;6193014;28;20053;-78
2023/09/19 09:06:55;;;;;;;4.60;1.13;;;;;;;;;;6204189;28;20042;-79
2023/09/19 09:09:57;;;;;;;;;;;;;;;;;;6198772;28;20053;-77
2023/09/19 09:13:02;;;;;;;5.47;1.55;;;;;;;;;;6196158;28;20503;-79
2023/09/19 09:16:04;;;;;;;5.88;1.60;;;;;;;;;;6199715;28;20038;-79
2023/09/19 09:19:06;;;;;;;7.32;1.70;;;;;;;;;;6197507;28;20050;-79
2023/09/19 09:22:09;;;;;;;5.57;1.60;;;;;;;;;;6192075;28;20042;-78
2023/09/19 09:25:11;;;;;;;8.23;2.22;;;;;;;;;;6207840;28;20050;-79
2023/09/19 09:28:19;;;;;;;6.18;1.42;;;;;;;;;;6209065;28;20046;-78
2023/09/19 09:31:24;;;;;;;6.70;1.65;;;;;;;;;;6195672;28;20081;-77
2023/09/19 09:34:33;;;;;;;5.03;1.60;;;;;;;;;;6203907;28;20188;-77
2023/09/19 09:37:38;;;;;;;6.95;1.63;;;;;;;;;;6193494;28;20046;-78
2023/09/19 09:40:58;;;;;;;7.05;1.83;;;;;;;;;;6192968;28;20523;-79
2023/09/19 09:44:16;;;;;;;5.88;1.20;;;;;;;;;;6194646;28;20069;-79
2023/09/19 09:47:55;;;;;;;4.43;1.30;;;;;;;;;;6191787;28;20142;-79
2023/09/19 09:51:03;;;;;;;8.35;1.73;;;;;;;;;;6188417;28;20046;-78
2023/09/19 09:54:20;;;;;;;8.10;1.45;;;;;;;;;;6202260;28;20189;-79
2023/09/19 09:57:23;;;;;;;6.43;1.80;;;;;;;;;;6197594;28;20054;-78
2023/09/19 10:00:32;;;;;;;4.85;1.30;;;;;;;;;;6189632;28;20042;-77
2023/09/19 10:03:39;;;;;;;7.38;1.60;;;;;;;;;;6182119;28;20052;-78
2023/09/19 10:06:47;;;;;;;6.18;1.75;;;;;;;;;;6200527;28;20414;-77
2023/09/19 10:09:50;;;;;;;7.47;1.70;;;;;;;;;;6200345;28;20048;-79
2023/09/19 10:12:56;;;;;;;5.60;1.38;;;;;;;;;;6187668;28;20039;-79
2023/09/19 10:16:03;;;;;;;6.30;1.65;;;;;;;;;;6171237;28;20050;-80
2023/09/19 10:19:08;;;;;;;4.45;1.50;;;;;;;;;;6175500;28;20457;-78
2023/09/19 10:22:12;;;;;;;4.43;1.45;;;;;;;;;;6182257;28;20053;-79
2023/09/19 10:25:14;;;;;;;3.38;1.48;;;;;;;;;;6197361;28;20149;-78
2023/09/19 10:28:21;;;;;;;5.97;1.45;;;;;;;;;;6199570;28;20050;-79
2023/09/19 10:31:25;;;;;;;8.80;1.70;;;;;;;;;;6198383;28;20074;-79
2023/09/19 10:34:30;;;;;;;4.88;1.40;;;;;;;;;;6210970;28;20050;-79
2023/09/19 10:37:34;;;;;;;7.13;1.50;;;;;;;;;;6222127;28;20110;-80
2023/09/19 10:40:40;;;;;;;7.03;1.40;;;;;;;;;;6199331;28;20503;-79
2023/09/19 10:43:46;;;;;;;6.10;1.60;;;;;;;;;;6205934;28;20042;-79
2023/09/19 10:46:48;;;;;;;9.90;1.80;;;;;;;;;;6205100;28;20094;-79
2023/09/19 10:49:50;;;;;;;4.15;1.48;;;;;;;;;;6197429;28;20102;-76
2023/09/19 10:52:58;;;;;;;6.17;1.27;;;;;;;;;;6202161;28;20050;-76
2023/09/19 10:56:09;;;;;;;8.45;1.67;;;;;;;;;;6204020;28;20077;-77
2023/09/19 10:59:14;;;;;;;2.47;1.20;;;;;;;;;;6205146;28;20082;-80
2023/09/19 11:02:17;;;;;;;5.57;1.30;;;;;;;;;;6201083;28;20053;-80
2023/09/19 11:05:20;;;;;;;3.47;2.05;;;;;;;;;;6194364;28;20038;-77
2023/09/19 11:08:23;;;;;;;6.67;1.63;;;;;;;;;;6202191;28;20045;-79
2023/09/19 11:11:39;;;;;;;4.32;1.50;;;;;;;;;;6204460;28;20042;-77
2023/09/19 11:14:42;;;;;;;5.13;1.67;;;;;;;;;;6200119;28;20052;-78
2023/09/19 11:17:46;;;;;;;4.72;1.70;;;;;;;;;;6211224;28;20042;-78
2023/09/19 11:20:51;;;;;;;5.32;1.63;;;;;;;;;;6191029;28;20127;-79
2023/09/19 11:24:22;;;;;;;5.32;1.40;;;;;;;;;;6199291;28;20062;-77
2023/09/19 11:27:27;;;;;;;3.72;1.30;;;;;;;;;;6194654;28;20634;-78
2023/09/19 11:30:30;;;;;;;5.10;1.42;;;;;;;;;;6197331;28;20578;-78
2023/09/19 11:33:37;;;;;;;5.28;1.25;;;;;;;;;;6181855;28;20125;-78
2023/09/19 11:36:39;;;;;;;6.60;1.67;;;;;;;;;;6180096;28;20038;-79
2023/09/19 11:40:15;;;;;;;4.13;1.50;;;;;;;;;;6182221;28;20054;-79
2023/09/19 11:43:31;;;;;;;3.83;1.55;;;;;;;;;;6174376;28;20131;-76
2023/09/19 11:46:33;;;;;;;4.75;1.30;;;;;;;;;;6198367;28;20041;-77
2023/09/19 11:49:40;;;;;;;5.50;1.58;;;;;;;;;;6197726;28;20419;-78
2023/09/19 11:52:44;;;;;;;4.55;1.63;;;;;;;;;;6203023;28;20080;-78
2023/09/19 11:55:46;;;;;;;3.95;1.58;;;;;;;;;;6202654;28;20037;-79
2023/09/19 11:58:56;;;;;;;4.57;1.63;;;;;;;;;;6202533;28;20416;-79
2023/09/19 12:02:06;;;;;;;6.82;1.70;;;;;;;;;;6179947;28;20504;-79
2023/09/19 12:05:09;;;;;;;6.43;1.85;;;;;;;;;;6177055;28;20053;-78
2023/09/19 12:08:16;;;;;;;;;;;;;;;;;;6192908;28;20134;-78
2023/09/19 12:11:19;;;;;;;4.93;1.70;;;;;;;;;;6180348;28;19922;-77
2023/09/19 12:14:23;;;;;;;6.50;2.30;;;;;;;;;;6179690;28;20090;-77
2023/09/19 12:17:42;;;;;;;4.85;1.83;;;;;;;;;;6202239;28;20082;-80
2023/09/19 12:20:47;;;;;;;5.63;1.90;;;;;;;;;;6197865;28;20062;-80
2023/09/19 12:24:13;;;;;;;5.35;1.60;;;;;;;;;;6174854;28;20042;-81
2023/09/19 12:27:15;;;;;;;4.72;1.92;;;;;;;;;;6190756;28;20053;-80
2023/09/19 12:30:20;;;;;;;6.90;2.08;;;;;;;;;;6192813;28;20066;-78
2023/09/19 12:33:29;;;;;;;4.72;1.60;;;;;;;;;;6201471;28;20151;-79
2023/09/19 12:36:34;;;;;;;3.60;1.45;;;;;;;;;;6182066;28;20070;-79
2023/09/19 12:39:35;;;;;;;6.60;1.65;;;;;;;;;;6195291;28;20054;-78
2023/09/19 12:42:38;;;;;;;6.78;1.63;;;;;;;;;;6203047;28;20050;-79
2023/09/19 12:45:42;;;;;;;7.65;1.75;;;;;;;;;;6200904;28;20050;-81
2023/09/19 12:48:45;;;;;;;5.75;1.67;;;;;;;;;;6201577;28;20566;-81
2023/09/19 12:51:47;;;;;;;2.08;1.15;;;;;;;;;;6217972;28;20026;-77
2023/09/19 12:54:51;;;;;;;6.53;1.60;;;;;;;;;;6209082;28;20097;-80
2023/09/19 12:58:09;;;;;;;4.38;1.80;;;;;;;;;;6202624;28;21209;-78
2023/09/19 13:01:15;;;;;;;5.95;2.35;;;;;;;;;;6196469;28;20126;-78
2023/09/19 13:04:19;;;;;;;8.00;1.70;;;;;;;;;;6191888;28;20073;-78
2023/09/19 13:07:46;;;;;;;4.70;1.50;;;;;;;;;;6211819;28;20050;-75
2023/09/19 13:11:01;;;;;;;4.68;1.50;;;;;;;;;;6181834;28;20536;-77
2023/09/19 13:14:23;;;;;;;7.18;1.67;;;;;;;;;;6194197;28;20041;-77
2023/09/19 13:17:42;;;;;;;3.92;1.30;;;;;;;;;;6165509;28;20562;-80
2023/09/19 13:21:14;;;;;;;6.35;1.80;;;;;;;;;;6192118;28;20049;-80
2023/09/19 13:24:23;;;;;;;4.95;1.70;;;;;;;;;;6199569;28;20057;-83
2023/09/19 13:27:24;;;;;;;4.60;1.38;;;;;;;;;;6197451;28;20052;-81
2023/09/19 13:30:29;;;;;;;4.88;1.63;;;;;;;;;;6198145;28;20049;-81
2023/09/19 13:33:31;;;;;;;3.90;1.30;;;;;;;;;;6199606;28;20056;-80
2023/09/19 13:36:34;;;;;;;;;;;;;;;;;;6198434;28;20070;-81
2023/09/19 13:39:36;;;;;;;2.38;1.20;;;;;;;;;;6200698;28;19921;-81
2023/09/19 13:42:41;;;;;;;4.50;1.67;;;;;;;;;;6198090;28;20050;-82
2023/09/19 13:45:44;;;;;;;4.75;1.20;;;;;;;;;;6200394;28;20497;-82
2023/09/19 13:48:50;;;;;;;4.18;1.10;;;;;;;;;;6188091;28;20068;-82
2023/09/19 13:51:55;;;;;;;4.50;1.48;;;;;;;;;;6199129;28;20136;-80
2023/09/19 13:54:59;;;;;;;7.13;1.40;;;;;;;;;;6207837;28;20045;-82
2023/09/19 13:58:02;;;;;;;3.47;1.52;;;;;;;;;;6196615;28;20045;-81
2023/09/19 14:01:04;;;;;;;5.93;1.30;;;;;;;;;;6191117;28;20065;-82
2023/09/19 14:04:06;;;;;;;4.40;1.35;;;;;;;;;;6171146;28;20049;-82
2023/09/19 14:07:07;;;;;;;4.53;1.40;;;;;;;;;;6205245;28;20050;-82
2023/09/19 14:10:10;;;;;;;4.70;1.23;;;;;;;;;;6197108;28;20507;-81
2023/09/19 14:13:13;;;;;;;4.80;1.38;;;;;;;;;;6196121;28;20054;-81
2023/09/19 14:16:16;;;;;;;3.50;1.23;;;;;;;;;;6196359;28;20605;-82
2023/09/19 14:19:18;;;;;;;5.40;1.15;;;;;;;;;;6201178;28;20440;-83
2023/09/19 14:22:19;;;;;;;4.33;1.33;;;;;;;;;;6195453;28;20046;-82
2023/09/19 14:25:22;;;;;;;5.60;1.30;;;;;;;;;;6200019;28;20624;-81
2023/09/19 14:28:25;;;;;;;4.57;1.35;;;;;;;;;;6196027;28;21502;-82
2023/09/19 14:31:27;;;;;;;2.58;1.27;;;;;;;;;;6198842;28;20763;-81
2023/09/19 14:34:29;;;;;;;3.70;1.48;;;;;;;;;;6194177;28;20065;-78
2023/09/19 14:37:31;;;;;;;4.82;1.25;;;;;;;;;;6193823;28;20049;-80
2023/09/19 14:40:32;;;;;;;3.73;1.20;;;;;;;;;;6201591;28;20048;-81
2023/09/19 14:43:34;;;;;;;6.05;1.20;;;;;;;;;;6164754;28;20453;-81
2023/09/19 14:46:36;;;;;;;5.93;1.23;;;;;;;;;;6181668;28;20045;-80
2023/09/19 14:49:38;;;;;;;4.53;1.25;;;;;;;;;;6163246;28;20504;-81
2023/09/19 14:52:40;;;;;;;3.47;1.10;;;;;;;;;;6158112;28;20066;-80
2023/09/19 14:55:44;;;;;;;5.30;1.02;;;;;;;;;;6168090;28;20533;-81
2023/09/19 14:58:47;;;;;;;3.30;1.20;;;;;;;;;;6182107;28;20095;-81
2023/09/19 15:01:50;;;;;;;2.67;1.20;;;;;;;;;;6174789;28;20043;-80
2023/09/19 15:04:52;;;;;;;2.78;1.35;;;;;;;;;;6173516;28;20334;-80
2023/09/19 15:07:55;;;;;;;5.88;1.35;;;;;;;;;;6216113;28;20076;-79
2023/09/19 15:10:58;;;;;;;3.63;0.95;;;;;;;;;;6224597;28;20070;-80
2023/09/19 15:14:00;;;;;;;3.80;1.10;;;;;;;;;;6202021;28;20147;-79
2023/09/19 15:17:04;;;;;;;2.97;1.02;;;;;;;;;;6213485;28;20123;-80
2023/09/19 15:20:07;;;;;;;4.60;1.02;;;;;;;;;;6191128;28;20065;-79
2023/09/19 15:23:09;;;;;;;3.33;0.98;;;;;;;;;;6192613;28;20070;-79
2023/09/19 15:26:13;;;;;;;5.45;1.20;;;;;;;;;;6198289;28;20050;-81
2023/09/19 15:29:16;;;;;;;3.75;1.08;;;;;;;;;;6196658;28;20038;-79
2023/09/19 15:32:17;;;;;;;3.78;0.88;;;;;;;;;;6195615;28;20089;-80
2023/09/19 15:35:19;;;;;;;3.55;1.20;;;;;;;;;;6181402;28;20049;-79
2023/09/19 15:38:21;;;;;;;3.80;1.08;;;;;;;;;;6197014;28;20050;-79
2023/09/19 15:41:27;;;;;;;3.17;1.13;;;;;;;;;;6193454;28;20140;-79
2023/09/19 15:44:29;;;;;;;5.90;1.33;;;;;;;;;;6190334;28;20700;-78
2023/09/19 15:47:31;;;;;;;4.10;1.15;;;;;;;;;;6194658;28;20052;-79
2023/09/19 15:50:34;;;;;;;4.13;1.00;;;;;;;;;;6192245;28;20045;-79
2023/09/19 15:53:46;;;;;;;3.40;1.00;;;;;;;;;;6195976;28;20045;-78
2023/09/19 15:56:48;;;;;;;2.08;0.80;;;;;;;;;;6215068;28;20042;-79
2023/09/19 15:59:50;;;;;;;3.40;1.10;;;;;;;;;;6193600;28;20069;-80
2023/09/19 16:02:52;;;;;;;4.43;0.90;;;;;;;;;;6197291;28;20058;-79
2023/09/19 16:05:54;;;;;;;;;;;;;;;;;;6197213;28;20049;-79
2023/09/19 16:08:58;;;;;;;3.17;0.98;;;;;;;;;;6200449;28;19989;-78
2023/09/19 16:12:00;;;;;;;5.80;0.98;;;;;;;;;;6199690;28;20042;-79
2023/09/19 16:15:02;;;;;;;2.75;0.90;;;;;;;;;;6203719;28;20500;-79
2023/09/19 16:18:04;;;;;;;2.10;0.85;;;;;;;;;;6194615;28;20045;-79
2023/09/19 16:21:10;;;;;;;3.53;0.80;;;;;;;;;;6190882;28;20045;-79
2023/09/19 16:24:20;;;;;;;3.35;1.00;;;;;;;;;;6217100;28;20530;-79
2023/09/19 16:27:21;;;;;;;2.90;0.98;;;;;;;;;;6178613;28;20645;-79
2023/09/19 16:30:23;;;;;;;3.33;1.17;;;;;;;;;;6168834;28;20070;-79
2023/09/19 16:33:26;;;;;;;2.78;0.95;;;;;;;;;;6171096;28;20046;-79
2023/09/19 16:36:28;;;;;;;3.08;1.30;;;;;;;;;;6173116;28;20053;-79
2023/09/19 16:39:30;;;;;;;2.47;0.95;;;;;;;;;;6182264;28;20054;-79
2023/09/19 16:42:31;;;;;;;3.17;1.20;;;;;;;;;;6169944;28;20050;-80
2023/09/19 16:45:41;;;;;;;2.15;0.75;;;;;;;;;;6167335;28;20042;-79
2023/09/19 16:48:49;;;;;;;2.85;0.85;;;;;;;;;;6174835;28;20133;-80
2023/09/19 16:52:05;;;;;;;5.32;0.80;;;;;;;;;;6174041;28;20061;-79
2023/09/19 16:55:06;;;;;;;3.35;0.90;;;;;;;;;;6171713;28;20038;-80
2023/09/19 16:58:09;;;;;;;2.50;0.80;;;;;;;;;;6182737;28;20046;-80
2023/09/19 17:01:13;;;;;;;3.03;1.00;;;;;;;;;;6178396;28;20046;-78
2023/09/19 17:04:15;;;;;;;3.65;0.80;;;;;;;;;;6173302;28;20062;-77
2023/09/19 17:07:17;;;;;;;3.42;0.70;;;;;;;;;;6171167;28;20050;-78
2023/09/19 17:10:19;;;;;;;3.08;0.90;;;;;;;;;;6175660;28;20059;-78
2023/09/19 17:13:20;;;;;;;5.28;1.20;;;;;;;;;;6174788;28;20042;-80
2023/09/19 17:16:22;;;;;;;2.80;0.90;;;;;;;;;;6176266;28;20058;-79
2023/09/19 17:19:25;;;;;;;2.25;0.88;;;;;;;;;;6165814;28;20178;-79
2023/09/19 17:22:27;;;;;;;5.40;1.23;;;;;;;;;;6172918;28;20046;-78
2023/09/19 17:25:31;;;;;;;2.60;0.90;;;;;;;;;;6171186;28;20097;-77
2023/09/19 17:28:33;;;;;;;3.10;0.93;;;;;;;;;;6166575;28;20057;-78
2023/09/19 17:31:35;;;;;;;2.88;1.20;;;;;;;;;;6165403;28;20054;-78
2023/09/19 17:34:36;;;;;;;2.65;1.48;;;;;;;;;;6171681;28;20045;-77
2023/09/19 17:37:41;;;;;;;1.90;1.20;;;;;;;;;;6167323;28;20130;-79
2023/09/19 17:40:46;;;;;;;2.72;1.00;;;;;;;;;;6177333;28;20066;-78
2023/09/19 17:43:54;;;;;;;3.53;1.00;;;;;;;;;;6172412;28;20046;-79
2023/09/19 17:47:00;;;;;;;1.70;0.60;;;;;;;;;;6170359;28;20067;-79
2023/09/19 17:50:07;;;;;;;6.78;1.00;;;;;;;;;;6169547;28;20048;-80
2023/09/19 17:53:09;;;;;;;3.88;1.00;;;;;;;;;;6153776;28;20415;-79
2023/09/19 17:56:14;;;;;;;5.57;1.30;;;;;;;;;;6172231;28;20133;-79
2023/09/19 17:59:16;;;;;;;1.73;0.75;;;;;;;;;;6173290;28;20058;-79
2023/09/19 18:02:18;;;;;;;3.13;1.10;;;;;;;;;;6170828;28;20057;-79
2023/09/19 18:05:21;;;;;;;5.22;2.35;;;;;;;;;;6170377;28;20046;-78
2023/09/19 18:08:32;;;;;;;3.08;1.45;;;;;;;;;;6178664;28;20050;-79
2023/09/19 18:11:34;;;;;;;4.27;0.80;;;;;;;;;;6173974;28;20046;-80
2023/09/19 18:14:36;;;;;;;4.28;0.88;;;;;;;;;;6174327;28;20042;-79
2023/09/19 18:17:38;;;;;;;2.10;0.68;;;;;;;;;;6155117;28;20471;-79
2023/09/19 18:20:40;;;;;;;3.57;1.07;;;;;;;;;;6164677;28;20516;-78
2023/09/19 18:23:41;;;;;;;2.10;0.80;;;;;;;;;;6174477;28;20437;-78
2023/09/19 18:26:43;;;;;;;2.67;0.90;;;;;;;;;;6151585;28;20054;-78
2023/09/19 18:29:46;;;;;;;3.70;1.05;;;;;;;;;;6164790;28;20081;-79